Aviation Digital Data Service (ADDS)

Output produced by METARs form (1408 UTC 19 April 2015)
found at http://aviationweather.gov/adds/metars/
 
KBDL 191120Z 1912/2018 03009KT P6SM SKC 
     FM191700 10004KT P6SM FEW250 
     FM192100 16004KT P6SM FEW250 
     FM200800 10004KT P6SM BKN150 
     FM201200 09007KT P6SM -RA OVC025